Hauptseite
METAR-TAF:

METAR-TAF

Flughäfen :

Siegerlandflughafen

Siegen, Deutschland

Breite: 50-42-28N, Länge: 008-04-59E, Höhe: 602 m

Beobachtung

Neuester Wetterbericht von vor 20 Minuten, um 10:20 UTC
Wind 13 kt aus Südost
Temperatur 13°C
Luftfeuchtigkeit 62%
Luftdruck 1010 hPa
Sichtweite 10 km oder mehr
Leichtregen

METAR: EDGS 251020Z 14013KT 9999 -RA NSC 13/06 Q1010

Zeit: 12:40 (10:40 UTC)

Prognose

Neuester Wetterbericht von vor 2 Stunden und 40 Minuten, um 08:00 UTC
Gültige Prognose vom 25 um 09 UTC bis 25 um 18 UTC
Wind 9 kt aus Südost
Sichtweite 10 km oder mehr
keine Wolken unter 1500 m und keine Kumulonimbus oder Gewitterwolken

TAF: EDGS 250800Z 2509/2518 14009KT CAVOK

Wetterbeobachtungen und Prognosen von mehr als 4000 Flughäfen (METAR und TAF Bericht).

Die verfügbaren Stationen werden durch gelbe und rote Markierungen auf der Karte dargestellt.

Führen Sie die Maus auf sie, um den Namen der Station zu sehen.

Darauf klicken, um die Beobachtung von Wetterbeobachtungen und Prognosen zu sehen.

Um die Karte zu ändern : klicken Sie auf den grünen Tasten mit einem schwarzen Kreuz Zum Vergrößern, auf den grünen Button mit einem Gedankenstrich zu verkleinern, oder auf die grünen Pfeile für benachbarte Karten.


METAR-TAF: